sensor_id;sensor_type;location;lat;lon;timestamp;P1;durP1;ratioP1;P2;durP2;ratioP2
23360;SDS011;11852;50.082;18.554;2023-01-13T00:00:43;5.7;;;1.8;;
23360;SDS011;11852;50.082;18.554;2023-01-13T00:01:50;5.2;;;1.7;;
23360;SDS011;11852;50.082;18.554;2023-01-13T00:02:58;4.8;;;1.5;;
23360;SDS011;11852;50.082;18.554;2023-01-13T00:04:05;6.4;;;1.5;;
23360;SDS011;11852;50.082;18.554;2023-01-13T00:05:12;6.7;;;2.4;;
23360;SDS011;11852;50.082;18.554;2023-01-13T00:06:20;5.3;;;2.0;;
23360;SDS011;11852;50.082;18.554;2023-01-13T00:07:26;6.1;;;1.9;;
23360;SDS011;11852;50.082;18.554;2023-01-13T00:08:33;6.2;;;2.1;;
23360;SDS011;11852;50.082;18.554;2023-01-13T00:09:40;5.6;;;2.0;;
23360;SDS011;11852;50.082;18.554;2023-01-13T00:10:48;5.2;;;2.0;;
23360;SDS011;11852;50.082;18.554;2023-01-13T00:11:55;5.8;;;1.9;;
23360;SDS011;11852;50.082;18.554;2023-01-13T00:13:03;5.5;;;1.8;;
23360;SDS011;11852;50.082;18.554;2023-01-13T00:14:09;5.4;;;1.8;;
23360;SDS011;11852;50.082;18.554;2023-01-13T00:15:16;6.0;;;1.9;;
23360;SDS011;11852;50.082;18.554;2023-01-13T00:16:23;5.0;;;1.8;;
23360;SDS011;11852;50.082;18.554;2023-01-13T00:17:30;5.4;;;2.0;;
23360;SDS011;11852;50.082;18.554;2023-01-13T00:18:37;4.6;;;1.8;;
23360;SDS011;11852;50.082;18.554;2023-01-13T00:19:45;5.0;;;1.7;;
23360;SDS011;11852;50.082;18.554;2023-01-13T00:22:09;7.2;;;2.1;;
23360;SDS011;11852;50.082;18.554;2023-01-13T00:23:16;5.0;;;2.1;;
23360;SDS011;11852;50.082;18.554;2023-01-13T00:24:23;5.5;;;2.1;;
23360;SDS011;11852;50.082;18.554;2023-01-13T00:25:30;6.8;;;2.2;;
23360;SDS011;11852;50.082;18.554;2023-01-13T00:26:37;6.5;;;2.2;;
23360;SDS011;11852;50.082;18.554;2023-01-13T00:27:44;5.4;;;1.8;;
23360;SDS011;11852;50.082;18.554;2023-01-13T00:28:55;4.9;;;2.0;;
23360;SDS011;11852;50.082;18.554;2023-01-13T00:30:02;5.2;;;1.7;;
23360;SDS011;11852;50.082;18.554;2023-01-13T00:31:13;5.8;;;2.1;;
23360;SDS011;11852;50.082;18.554;2023-01-13T00:32:23;5.3;;;2.0;;
23360;SDS011;11852;50.082;18.554;2023-01-13T00:33:31;5.5;;;1.8;;
23360;SDS011;11852;50.082;18.554;2023-01-13T00:34:38;4.9;;;1.8;;
23360;SDS011;11852;50.082;18.554;2023-01-13T00:35:53;5.5;;;1.8;;
23360;SDS011;11852;50.082;18.554;2023-01-13T00:36:52;6.1;;;2.1;;
23360;SDS011;11852;50.082;18.554;2023-01-13T00:37:59;5.8;;;1.8;;
23360;SDS011;11852;50.082;18.554;2023-01-13T00:39:06;5.8;;;1.9;;
23360;SDS011;11852;50.082;18.554;2023-01-13T00:40:13;5.4;;;1.7;;
23360;SDS011;11852;50.082;18.554;2023-01-13T00:41:21;5.3;;;1.9;;
23360;SDS011;11852;50.082;18.554;2023-01-13T00:42:33;5.7;;;2.2;;
23360;SDS011;11852;50.082;18.554;2023-01-13T00:43:40;5.5;;;2.0;;
23360;SDS011;11852;50.082;18.554;2023-01-13T00:44:47;5.8;;;1.8;;
23360;SDS011;11852;50.082;18.554;2023-01-13T00:45:54;6.6;;;2.4;;
23360;SDS011;11852;50.082;18.554;2023-01-13T00:47:01;6.2;;;2.3;;
23360;SDS011;11852;50.082;18.554;2023-01-13T00:48:08;5.0;;;2.1;;
23360;SDS011;11852;50.082;18.554;2023-01-13T00:49:15;5.7;;;2.0;;
23360;SDS011;11852;50.082;18.554;2023-01-13T00:50:22;5.6;;;1.8;;
23360;SDS011;11852;50.082;18.554;2023-01-13T00:51:29;5.4;;;1.9;;
23360;SDS011;11852;50.082;18.554;2023-01-13T00:52:36;6.0;;;2.0;;
23360;SDS011;11852;50.082;18.554;2023-01-13T00:53:44;5.1;;;2.1;;
23360;SDS011;11852;50.082;18.554;2023-01-13T00:54:50;5.3;;;1.9;;
23360;SDS011;11852;50.082;18.554;2023-01-13T00:56:00;5.9;;;2.1;;
23360;SDS011;11852;50.082;18.554;2023-01-13T00:57:07;4.9;;;2.1;;
23360;SDS011;11852;50.082;18.554;2023-01-13T00:58:14;5.1;;;2.0;;
23360;SDS011;11852;50.082;18.554;2023-01-13T00:59:21;5.9;;;2.0;;
23360;SDS011;11852;50.082;18.554;2023-01-13T01:00:29;4.9;;;2.0;;
23360;SDS011;11852;50.082;18.554;2023-01-13T01:01:35;4.9;;;2.1;;
23360;SDS011;11852;50.082;18.554;2023-01-13T01:02:42;5.2;;;2.0;;
23360;SDS011;11852;50.082;18.554;2023-01-13T01:03:50;5.9;;;2.3;;
23360;SDS011;11852;50.082;18.554;2023-01-13T01:04:57;5.8;;;2.1;;
23360;SDS011;11852;50.082;18.554;2023-01-13T01:06:06;6.3;;;2.0;;
23360;SDS011;11852;50.082;18.554;2023-01-13T01:07:14;5.2;;;2.1;;
23360;SDS011;11852;50.082;18.554;2023-01-13T01:08:21;4.9;;;1.9;;
23360;SDS011;11852;50.082;18.554;2023-01-13T01:09:28;6.0;;;2.0;;
23360;SDS011;11852;50.082;18.554;2023-01-13T01:10:35;6.9;;;2.0;;
23360;SDS011;11852;50.082;18.554;2023-01-13T01:11:43;5.5;;;2.0;;
23360;SDS011;11852;50.082;18.554;2023-01-13T01:12:50;5.5;;;2.0;;
23360;SDS011;11852;50.082;18.554;2023-01-13T01:13:59;5.3;;;2.0;;
23360;SDS011;11852;50.082;18.554;2023-01-13T01:15:05;5.4;;;2.2;;
23360;SDS011;11852;50.082;18.554;2023-01-13T01:16:13;5.2;;;2.1;;
23360;SDS011;11852;50.082;18.554;2023-01-13T01:17:19;5.2;;;2.2;;
23360;SDS011;11852;50.082;18.554;2023-01-13T01:18:26;6.1;;;2.1;;
23360;SDS011;11852;50.082;18.554;2023-01-13T01:19:33;5.3;;;2.0;;
23360;SDS011;11852;50.082;18.554;2023-01-13T01:20:40;7.4;;;2.3;;
23360;SDS011;11852;50.082;18.554;2023-01-13T01:21:47;5.9;;;2.5;;
23360;SDS011;11852;50.082;18.554;2023-01-13T01:22:55;7.5;;;2.5;;
23360;SDS011;11852;50.082;18.554;2023-01-13T01:24:02;5.6;;;2.6;;
23360;SDS011;11852;50.082;18.554;2023-01-13T01:25:09;5.7;;;2.3;;
23360;SDS011;11852;50.082;18.554;2023-01-13T01:26:17;6.3;;;2.4;;
23360;SDS011;11852;50.082;18.554;2023-01-13T01:27:23;5.0;;;2.2;;
23360;SDS011;11852;50.082;18.554;2023-01-13T01:28:31;7.1;;;2.4;;
23360;SDS011;11852;50.082;18.554;2023-01-13T01:29:37;6.0;;;2.5;;
23360;SDS011;11852;50.082;18.554;2023-01-13T01:30:45;5.5;;;2.4;;
23360;SDS011;11852;50.082;18.554;2023-01-13T01:31:52;5.8;;;2.5;;
23360;SDS011;11852;50.082;18.554;2023-01-13T01:32:59;7.0;;;2.6;;
23360;SDS011;11852;50.082;18.554;2023-01-13T01:34:06;6.0;;;2.5;;
23360;SDS011;11852;50.082;18.554;2023-01-13T01:35:13;6.5;;;2.6;;
23360;SDS011;11852;50.082;18.554;2023-01-13T01:36:20;6.5;;;2.7;;
23360;SDS011;11852;50.082;18.554;2023-01-13T01:37:27;6.1;;;2.5;;
23360;SDS011;11852;50.082;18.554;2023-01-13T01:38:34;6.1;;;2.2;;
23360;SDS011;11852;50.082;18.554;2023-01-13T01:39:41;6.9;;;2.4;;
23360;SDS011;11852;50.082;18.554;2023-01-13T01:40:48;6.0;;;2.5;;
23360;SDS011;11852;50.082;18.554;2023-01-13T01:41:59;5.7;;;2.6;;
23360;SDS011;11852;50.082;18.554;2023-01-13T01:43:15;6.2;;;2.4;;
23360;SDS011;11852;50.082;18.554;2023-01-13T01:45:39;5.9;;;2.8;;
23360;SDS011;11852;50.082;18.554;2023-01-13T01:46:46;5.7;;;2.2;;
23360;SDS011;11852;50.082;18.554;2023-01-13T01:47:55;6.0;;;2.5;;
23360;SDS011;11852;50.082;18.554;2023-01-13T01:50:08;6.3;;;2.6;;
23360;SDS011;11852;50.082;18.554;2023-01-13T01:51:15;6.6;;;2.8;;
23360;SDS011;11852;50.082;18.554;2023-01-13T01:53:31;6.1;;;2.6;;
23360;SDS011;11852;50.082;18.554;2023-01-13T01:54:40;5.8;;;2.6;;
23360;SDS011;11852;50.082;18.554;2023-01-13T01:55:48;5.8;;;2.5;;
23360;SDS011;11852;50.082;18.554;2023-01-13T01:56:55;6.8;;;2.9;;
23360;SDS011;11852;50.082;18.554;2023-01-13T01:59:15;6.7;;;2.7;;
23360;SDS011;11852;50.082;18.554;2023-01-13T02:00:22;5.4;;;2.2;;
23360;SDS011;11852;50.082;18.554;2023-01-13T02:01:29;5.5;;;2.5;;
23360;SDS011;11852;50.082;18.554;2023-01-13T02:02:36;5.4;;;2.5;;
23360;SDS011;11852;50.082;18.554;2023-01-13T02:03:44;6.1;;;2.8;;
23360;SDS011;11852;50.082;18.554;2023-01-13T02:04:50;5.9;;;2.5;;
23360;SDS011;11852;50.082;18.554;2023-01-13T02:05:57;5.8;;;2.6;;
23360;SDS011;11852;50.082;18.554;2023-01-13T02:07:05;6.2;;;2.9;;
23360;SDS011;11852;50.082;18.554;2023-01-13T02:08:12;6.5;;;2.6;;
23360;SDS011;11852;50.082;18.554;2023-01-13T02:09:19;6.1;;;2.8;;
23360;SDS011;11852;50.082;18.554;2023-01-13T02:10:27;6.7;;;2.6;;
23360;SDS011;11852;50.082;18.554;2023-01-13T02:11:38;5.9;;;2.5;;
23360;SDS011;11852;50.082;18.554;2023-01-13T02:12:45;7.4;;;3.0;;
23360;SDS011;11852;50.082;18.554;2023-01-13T02:13:52;9.0;;;2.5;;
23360;SDS011;11852;50.082;18.554;2023-01-13T02:15:04;6.0;;;2.8;;
23360;SDS011;11852;50.082;18.554;2023-01-13T02:16:15;5.9;;;2.9;;
23360;SDS011;11852;50.082;18.554;2023-01-13T02:17:25;5.9;;;2.5;;
23360;SDS011;11852;50.082;18.554;2023-01-13T02:24:59;5.7;;;2.5;;
23360;SDS011;11852;50.082;18.554;2023-01-13T02:28:56;5.7;;;2.7;;
23360;SDS011;11852;50.082;18.554;2023-01-13T02:29:50;6.2;;;2.8;;
23360;SDS011;11852;50.082;18.554;2023-01-13T02:31:05;6.2;;;2.9;;
23360;SDS011;11852;50.082;18.554;2023-01-13T02:32:17;6.4;;;2.6;;
23360;SDS011;11852;50.082;18.554;2023-01-13T02:34:38;5.9;;;2.6;;
23360;SDS011;11852;50.082;18.554;2023-01-13T02:35:48;6.0;;;2.6;;
23360;SDS011;11852;50.082;18.554;2023-01-13T02:36:57;6.3;;;2.9;;
23360;SDS011;11852;50.082;18.554;2023-01-13T02:38:03;5.6;;;2.6;;
23360;SDS011;11852;50.082;18.554;2023-01-13T02:41:39;6.3;;;3.0;;
23360;SDS011;11852;50.082;18.554;2023-01-13T02:43:01;6.9;;;3.1;;
23360;SDS011;11852;50.082;18.554;2023-01-13T02:44:05;6.2;;;3.1;;
23360;SDS011;11852;50.082;18.554;2023-01-13T02:45:17;5.6;;;3.2;;
23360;SDS011;11852;50.082;18.554;2023-01-13T02:46:24;5.6;;;2.5;;
23360;SDS011;11852;50.082;18.554;2023-01-13T02:47:29;6.9;;;3.0;;
23360;SDS011;11852;50.082;18.554;2023-01-13T02:48:36;5.9;;;2.8;;
23360;SDS011;11852;50.082;18.554;2023-01-13T02:49:45;6.3;;;2.9;;
23360;SDS011;11852;50.082;18.554;2023-01-13T02:50:55;7.0;;;3.0;;
23360;SDS011;11852;50.082;18.554;2023-01-13T02:52:47;7.7;;;3.2;;
23360;SDS011;11852;50.082;18.554;2023-01-13T02:54:28;5.1;;;2.6;;
23360;SDS011;11852;50.082;18.554;2023-01-13T02:55:35;6.2;;;3.0;;
23360;SDS011;11852;50.082;18.554;2023-01-13T02:56:43;7.1;;;2.8;;
23360;SDS011;11852;50.082;18.554;2023-01-13T02:57:49;5.8;;;3.0;;
23360;SDS011;11852;50.082;18.554;2023-01-13T02:58:56;6.0;;;2.8;;
23360;SDS011;11852;50.082;18.554;2023-01-13T03:00:03;5.2;;;2.7;;
23360;SDS011;11852;50.082;18.554;2023-01-13T03:01:10;5.2;;;2.7;;
23360;SDS011;11852;50.082;18.554;2023-01-13T03:02:18;6.6;;;2.9;;
23360;SDS011;11852;50.082;18.554;2023-01-13T03:03:24;6.9;;;3.0;;
23360;SDS011;11852;50.082;18.554;2023-01-13T03:05:50;6.4;;;3.4;;
23360;SDS011;11852;50.082;18.554;2023-01-13T03:07:08;5.2;;;2.7;;
23360;SDS011;11852;50.082;18.554;2023-01-13T03:11:54;6.2;;;3.1;;
23360;SDS011;11852;50.082;18.554;2023-01-13T03:18:01;5.8;;;3.0;;
23360;SDS011;11852;50.082;18.554;2023-01-13T03:20:25;5.2;;;2.8;;
23360;SDS011;11852;50.082;18.554;2023-01-13T03:21:28;6.8;;;3.2;;
23360;SDS011;11852;50.082;18.554;2023-01-13T03:23:50;5.9;;;3.0;;
23360;SDS011;11852;50.082;18.554;2023-01-13T03:24:59;6.1;;;3.0;;
23360;SDS011;11852;50.082;18.554;2023-01-13T03:28:37;7.6;;;3.4;;
23360;SDS011;11852;50.082;18.554;2023-01-13T03:29:47;5.9;;;3.3;;
23360;SDS011;11852;50.082;18.554;2023-01-13T03:30:53;6.6;;;3.6;;
23360;SDS011;11852;50.082;18.554;2023-01-13T03:32:02;6.8;;;3.7;;
23360;SDS011;11852;50.082;18.554;2023-01-13T03:34:23;7.6;;;3.8;;
23360;SDS011;11852;50.082;18.554;2023-01-13T03:35:35;7.3;;;3.5;;
23360;SDS011;11852;50.082;18.554;2023-01-13T03:36:42;7.1;;;3.5;;
23360;SDS011;11852;50.082;18.554;2023-01-13T03:37:50;7.8;;;3.8;;
23360;SDS011;11852;50.082;18.554;2023-01-13T03:38:57;7.6;;;3.5;;
23360;SDS011;11852;50.082;18.554;2023-01-13T03:40:07;7.4;;;3.7;;
23360;SDS011;11852;50.082;18.554;2023-01-13T03:41:18;6.4;;;3.2;;
23360;SDS011;11852;50.082;18.554;2023-01-13T03:42:23;6.4;;;3.5;;
23360;SDS011;11852;50.082;18.554;2023-01-13T03:43:42;7.4;;;3.4;;
23360;SDS011;11852;50.082;18.554;2023-01-13T03:44:50;6.3;;;2.9;;
23360;SDS011;11852;50.082;18.554;2023-01-13T03:45:56;6.5;;;3.2;;
23360;SDS011;11852;50.082;18.554;2023-01-13T03:47:05;6.7;;;3.4;;
23360;SDS011;11852;50.082;18.554;2023-01-13T03:48:10;7.2;;;3.3;;
23360;SDS011;11852;50.082;18.554;2023-01-13T03:49:18;7.7;;;3.4;;
23360;SDS011;11852;50.082;18.554;2023-01-13T03:50:27;7.1;;;3.1;;
23360;SDS011;11852;50.082;18.554;2023-01-13T03:51:33;6.2;;;3.1;;
23360;SDS011;11852;50.082;18.554;2023-01-13T03:52:44;6.3;;;3.0;;
23360;SDS011;11852;50.082;18.554;2023-01-13T03:53:52;6.2;;;3.3;;
23360;SDS011;11852;50.082;18.554;2023-01-13T03:55:01;7.0;;;3.4;;
23360;SDS011;11852;50.082;18.554;2023-01-13T03:56:06;6.8;;;3.5;;
23360;SDS011;11852;50.082;18.554;2023-01-13T03:57:12;6.6;;;3.1;;
23360;SDS011;11852;50.082;18.554;2023-01-13T03:59:37;6.7;;;3.2;;
23360;SDS011;11852;50.082;18.554;2023-01-13T04:00:45;6.4;;;3.1;;
23360;SDS011;11852;50.082;18.554;2023-01-13T04:01:51;6.8;;;3.0;;
23360;SDS011;11852;50.082;18.554;2023-01-13T04:03:03;6.9;;;3.1;;
23360;SDS011;11852;50.082;18.554;2023-01-13T04:04:08;7.1;;;3.3;;
23360;SDS011;11852;50.082;18.554;2023-01-13T04:05:14;6.3;;;3.0;;
23360;SDS011;11852;50.082;18.554;2023-01-13T04:08:45;5.5;;;3.1;;
23360;SDS011;11852;50.082;18.554;2023-01-13T04:09:51;6.5;;;3.2;;
23360;SDS011;11852;50.082;18.554;2023-01-13T04:12:11;6.5;;;3.0;;
23360;SDS011;11852;50.082;18.554;2023-01-13T04:13:18;6.3;;;2.9;;
23360;SDS011;11852;50.082;18.554;2023-01-13T04:14:24;5.8;;;2.6;;
23360;SDS011;11852;50.082;18.554;2023-01-13T04:15:35;6.6;;;2.9;;
23360;SDS011;11852;50.082;18.554;2023-01-13T04:16:47;6.0;;;2.8;;
23360;SDS011;11852;50.082;18.554;2023-01-13T04:17:53;6.8;;;3.1;;
23360;SDS011;11852;50.082;18.554;2023-01-13T04:19:00;7.1;;;3.4;;
23360;SDS011;11852;50.082;18.554;2023-01-13T04:20:08;6.8;;;2.9;;
23360;SDS011;11852;50.082;18.554;2023-01-13T04:21:15;5.4;;;3.2;;
23360;SDS011;11852;50.082;18.554;2023-01-13T04:22:22;7.8;;;3.3;;
23360;SDS011;11852;50.082;18.554;2023-01-13T04:23:29;7.4;;;3.2;;
23360;SDS011;11852;50.082;18.554;2023-01-13T04:24:36;7.7;;;3.7;;
23360;SDS011;11852;50.082;18.554;2023-01-13T04:25:43;8.2;;;4.1;;
23360;SDS011;11852;50.082;18.554;2023-01-13T04:26:50;8.0;;;3.9;;
23360;SDS011;11852;50.082;18.554;2023-01-13T04:27:57;7.1;;;3.2;;
23360;SDS011;11852;50.082;18.554;2023-01-13T04:29:05;6.9;;;3.4;;
23360;SDS011;11852;50.082;18.554;2023-01-13T04:30:12;7.5;;;3.6;;
23360;SDS011;11852;50.082;18.554;2023-01-13T04:31:19;7.4;;;3.4;;
23360;SDS011;11852;50.082;18.554;2023-01-13T04:32:26;7.1;;;3.5;;
23360;SDS011;11852;50.082;18.554;2023-01-13T04:33:33;6.6;;;3.1;;
23360;SDS011;11852;50.082;18.554;2023-01-13T04:34:40;7.2;;;3.1;;
23360;SDS011;11852;50.082;18.554;2023-01-13T04:35:47;6.3;;;2.9;;
23360;SDS011;11852;50.082;18.554;2023-01-13T04:36:54;8.3;;;3.6;;
23360;SDS011;11852;50.082;18.554;2023-01-13T04:38:05;6.4;;;3.1;;
23360;SDS011;11852;50.082;18.554;2023-01-13T04:39:11;8.2;;;3.4;;
23360;SDS011;11852;50.082;18.554;2023-01-13T04:40:18;6.9;;;3.4;;
23360;SDS011;11852;50.082;18.554;2023-01-13T04:41:25;8.4;;;3.3;;
23360;SDS011;11852;50.082;18.554;2023-01-13T04:42:33;8.1;;;3.5;;
23360;SDS011;11852;50.082;18.554;2023-01-13T04:43:39;6.8;;;3.4;;
23360;SDS011;11852;50.082;18.554;2023-01-13T04:44:47;7.1;;;3.1;;
23360;SDS011;11852;50.082;18.554;2023-01-13T04:45:54;7.1;;;3.1;;
23360;SDS011;11852;50.082;18.554;2023-01-13T04:47:01;7.4;;;3.3;;
23360;SDS011;11852;50.082;18.554;2023-01-13T04:48:08;7.0;;;2.8;;
23360;SDS011;11852;50.082;18.554;2023-01-13T04:49:15;7.2;;;3.4;;
23360;SDS011;11852;50.082;18.554;2023-01-13T04:50:22;7.7;;;3.5;;
23360;SDS011;11852;50.082;18.554;2023-01-13T04:51:29;6.4;;;2.9;;
23360;SDS011;11852;50.082;18.554;2023-01-13T04:52:37;6.6;;;3.1;;
23360;SDS011;11852;50.082;18.554;2023-01-13T04:53:44;7.4;;;3.5;;
23360;SDS011;11852;50.082;18.554;2023-01-13T04:54:51;5.8;;;2.8;;
23360;SDS011;11852;50.082;18.554;2023-01-13T04:55:58;6.3;;;2.9;;
23360;SDS011;11852;50.082;18.554;2023-01-13T04:57:05;7.5;;;2.9;;
23360;SDS011;11852;50.082;18.554;2023-01-13T04:58:12;6.8;;;3.1;;
23360;SDS011;11852;50.082;18.554;2023-01-13T04:59:19;7.3;;;3.2;;
23360;SDS011;11852;50.082;18.554;2023-01-13T05:00:26;7.1;;;3.0;;
23360;SDS011;11852;50.082;18.554;2023-01-13T05:01:34;6.7;;;2.8;;
23360;SDS011;11852;50.082;18.554;2023-01-13T05:02:41;7.2;;;3.0;;
23360;SDS011;11852;50.082;18.554;2023-01-13T05:03:48;6.5;;;2.9;;
23360;SDS011;11852;50.082;18.554;2023-01-13T05:04:55;6.8;;;2.8;;
23360;SDS011;11852;50.082;18.554;2023-01-13T05:06:02;7.2;;;3.3;;
23360;SDS011;11852;50.082;18.554;2023-01-13T05:07:09;6.7;;;2.7;;
23360;SDS011;11852;50.082;18.554;2023-01-13T05:08:16;7.2;;;3.1;;
23360;SDS011;11852;50.082;18.554;2023-01-13T05:09:23;8.3;;;3.1;;
23360;SDS011;11852;50.082;18.554;2023-01-13T05:10:31;6.8;;;3.2;;
23360;SDS011;11852;50.082;18.554;2023-01-13T05:11:43;8.0;;;3.6;;
23360;SDS011;11852;50.082;18.554;2023-01-13T05:12:55;6.4;;;3.1;;
23360;SDS011;11852;50.082;18.554;2023-01-13T05:14:07;6.3;;;2.8;;
23360;SDS011;11852;50.082;18.554;2023-01-13T05:15:19;7.0;;;3.2;;
23360;SDS011;11852;50.082;18.554;2023-01-13T05:16:31;6.5;;;3.2;;
23360;SDS011;11852;50.082;18.554;2023-01-13T05:17:39;7.5;;;3.1;;
23360;SDS011;11852;50.082;18.554;2023-01-13T05:18:46;6.2;;;3.1;;
23360;SDS011;11852;50.082;18.554;2023-01-13T05:19:53;7.3;;;3.2;;
23360;SDS011;11852;50.082;18.554;2023-01-13T05:21:00;7.3;;;3.1;;
23360;SDS011;11852;50.082;18.554;2023-01-13T05:22:12;7.8;;;3.3;;
23360;SDS011;11852;50.082;18.554;2023-01-13T05:23:24;6.3;;;3.0;;
23360;SDS011;11852;50.082;18.554;2023-01-13T05:24:36;6.5;;;3.1;;
23360;SDS011;11852;50.082;18.554;2023-01-13T05:25:43;7.4;;;2.9;;
23360;SDS011;11852;50.082;18.554;2023-01-13T05:26:50;6.1;;;2.7;;
23360;SDS011;11852;50.082;18.554;2023-01-13T05:27:58;7.5;;;3.0;;
23360;SDS011;11852;50.082;18.554;2023-01-13T05:29:05;9.0;;;3.1;;
23360;SDS011;11852;50.082;18.554;2023-01-13T05:30:11;6.0;;;2.5;;
23360;SDS011;11852;50.082;18.554;2023-01-13T05:31:18;7.4;;;2.9;;
23360;SDS011;11852;50.082;18.554;2023-01-13T05:32:26;6.5;;;2.8;;
23360;SDS011;11852;50.082;18.554;2023-01-13T05:33:33;5.9;;;2.6;;
23360;SDS011;11852;50.082;18.554;2023-01-13T05:34:40;7.2;;;3.0;;
23360;SDS011;11852;50.082;18.554;2023-01-13T05:35:47;6.7;;;2.9;;
23360;SDS011;11852;50.082;18.554;2023-01-13T05:36:54;6.6;;;2.7;;
23360;SDS011;11852;50.082;18.554;2023-01-13T05:38:01;7.0;;;3.1;;
23360;SDS011;11852;50.082;18.554;2023-01-13T05:39:08;7.4;;;3.0;;
23360;SDS011;11852;50.082;18.554;2023-01-13T05:40:21;6.8;;;2.8;;
23360;SDS011;11852;50.082;18.554;2023-01-13T05:41:33;7.8;;;2.8;;
23360;SDS011;11852;50.082;18.554;2023-01-13T05:42:45;5.7;;;2.4;;
23360;SDS011;11852;50.082;18.554;2023-01-13T05:43:52;5.4;;;2.6;;
23360;SDS011;11852;50.082;18.554;2023-01-13T05:44:59;7.0;;;2.7;;
23360;SDS011;11852;50.082;18.554;2023-01-13T05:46:07;5.7;;;2.6;;
23360;SDS011;11852;50.082;18.554;2023-01-13T05:47:13;5.8;;;2.7;;
23360;SDS011;11852;50.082;18.554;2023-01-13T05:48:21;5.6;;;2.4;;
23360;SDS011;11852;50.082;18.554;2023-01-13T05:49:27;6.5;;;2.7;;
23360;SDS011;11852;50.082;18.554;2023-01-13T05:50:35;6.1;;;2.7;;
23360;SDS011;11852;50.082;18.554;2023-01-13T05:51:42;7.0;;;3.0;;
23360;SDS011;11852;50.082;18.554;2023-01-13T05:52:49;6.4;;;2.7;;
23360;SDS011;11852;50.082;18.554;2023-01-13T05:53:56;7.0;;;2.7;;
23360;SDS011;11852;50.082;18.554;2023-01-13T05:55:03;5.4;;;2.6;;
23360;SDS011;11852;50.082;18.554;2023-01-13T05:56:10;8.2;;;3.1;;
23360;SDS011;11852;50.082;18.554;2023-01-13T05:57:17;6.7;;;3.4;;
23360;SDS011;11852;50.082;18.554;2023-01-13T05:58:25;7.6;;;3.4;;
23360;SDS011;11852;50.082;18.554;2023-01-13T05:59:31;7.4;;;3.1;;
23360;SDS011;11852;50.082;18.554;2023-01-13T06:00:38;7.2;;;3.1;;
23360;SDS011;11852;50.082;18.554;2023-01-13T06:01:45;7.6;;;3.4;;
23360;SDS011;11852;50.082;18.554;2023-01-13T06:02:53;7.2;;;3.3;;
23360;SDS011;11852;50.082;18.554;2023-01-13T06:04:00;7.7;;;3.3;;
23360;SDS011;11852;50.082;18.554;2023-01-13T06:05:07;7.4;;;3.3;;
23360;SDS011;11852;50.082;18.554;2023-01-13T06:06:14;8.0;;;3.1;;
23360;SDS011;11852;50.082;18.554;2023-01-13T06:07:21;7.1;;;3.2;;
23360;SDS011;11852;50.082;18.554;2023-01-13T06:08:28;7.1;;;3.3;;
23360;SDS011;11852;50.082;18.554;2023-01-13T06:09:35;10.3;;;3.9;;
23360;SDS011;11852;50.082;18.554;2023-01-13T06:10:42;7.8;;;3.5;;
23360;SDS011;11852;50.082;18.554;2023-01-13T06:11:49;8.4;;;3.5;;
23360;SDS011;11852;50.082;18.554;2023-01-13T06:12:56;8.8;;;3.7;;
23360;SDS011;11852;50.082;18.554;2023-01-13T06:14:03;8.3;;;3.9;;
23360;SDS011;11852;50.082;18.554;2023-01-13T06:15:10;7.7;;;3.9;;
23360;SDS011;11852;50.082;18.554;2023-01-13T06:16:17;7.1;;;3.1;;
23360;SDS011;11852;50.082;18.554;2023-01-13T06:17:25;9.0;;;3.8;;
23360;SDS011;11852;50.082;18.554;2023-01-13T06:18:32;7.8;;;3.7;;
23360;SDS011;11852;50.082;18.554;2023-01-13T06:19:39;7.3;;;3.1;;
23360;SDS011;11852;50.082;18.554;2023-01-13T06:20:46;8.1;;;3.5;;
23360;SDS011;11852;50.082;18.554;2023-01-13T06:21:55;8.5;;;3.5;;
23360;SDS011;11852;50.082;18.554;2023-01-13T06:23:00;7.3;;;3.1;;
23360;SDS011;11852;50.082;18.554;2023-01-13T06:24:08;8.4;;;3.6;;
23360;SDS011;11852;50.082;18.554;2023-01-13T06:26:27;7.0;;;3.5;;
23360;SDS011;11852;50.082;18.554;2023-01-13T06:27:34;6.7;;;3.4;;
23360;SDS011;11852;50.082;18.554;2023-01-13T06:28:41;6.4;;;2.9;;
23360;SDS011;11852;50.082;18.554;2023-01-13T06:29:48;8.3;;;3.3;;
23360;SDS011;11852;50.082;18.554;2023-01-13T06:30:56;7.6;;;3.1;;
23360;SDS011;11852;50.082;18.554;2023-01-13T06:32:04;7.6;;;3.3;;
23360;SDS011;11852;50.082;18.554;2023-01-13T06:33:11;7.8;;;3.4;;
23360;SDS011;11852;50.082;18.554;2023-01-13T06:34:17;5.8;;;3.3;;
23360;SDS011;11852;50.082;18.554;2023-01-13T06:35:27;7.1;;;3.2;;
23360;SDS011;11852;50.082;18.554;2023-01-13T06:36:34;6.7;;;3.3;;
23360;SDS011;11852;50.082;18.554;2023-01-13T06:37:39;8.3;;;3.7;;
23360;SDS011;11852;50.082;18.554;2023-01-13T06:38:46;8.5;;;3.9;;
23360;SDS011;11852;50.082;18.554;2023-01-13T06:39:53;7.7;;;3.6;;
23360;SDS011;11852;50.082;18.554;2023-01-13T06:41:00;8.0;;;3.5;;
23360;SDS011;11852;50.082;18.554;2023-01-13T06:42:12;9.0;;;3.7;;
23360;SDS011;11852;50.082;18.554;2023-01-13T06:43:19;8.3;;;3.7;;
23360;SDS011;11852;50.082;18.554;2023-01-13T06:44:26;8.3;;;4.0;;
23360;SDS011;11852;50.082;18.554;2023-01-13T06:45:33;8.1;;;3.7;;
23360;SDS011;11852;50.082;18.554;2023-01-13T06:46:40;8.7;;;3.9;;
23360;SDS011;11852;50.082;18.554;2023-01-13T06:47:48;7.1;;;3.4;;
23360;SDS011;11852;50.082;18.554;2023-01-13T06:48:55;8.8;;;3.8;;
23360;SDS011;11852;50.082;18.554;2023-01-13T06:50:02;7.5;;;3.4;;
23360;SDS011;11852;50.082;18.554;2023-01-13T06:51:09;7.2;;;3.8;;
23360;SDS011;11852;50.082;18.554;2023-01-13T06:52:16;11.2;;;4.1;;
23360;SDS011;11852;50.082;18.554;2023-01-13T06:53:23;6.4;;;3.5;;
23360;SDS011;11852;50.082;18.554;2023-01-13T06:54:30;7.0;;;3.3;;
23360;SDS011;11852;50.082;18.554;2023-01-13T06:55:37;7.0;;;3.4;;
23360;SDS011;11852;50.082;18.554;2023-01-13T06:56:44;8.2;;;3.5;;
23360;SDS011;11852;50.082;18.554;2023-01-13T06:57:55;9.2;;;3.5;;
23360;SDS011;11852;50.082;18.554;2023-01-13T06:59:02;6.6;;;3.7;;
23360;SDS011;11852;50.082;18.554;2023-01-13T07:00:09;7.2;;;3.1;;
23360;SDS011;11852;50.082;18.554;2023-01-13T07:01:16;6.5;;;3.1;;
23360;SDS011;11852;50.082;18.554;2023-01-13T07:02:23;6.5;;;2.8;;
23360;SDS011;11852;50.082;18.554;2023-01-13T07:03:30;5.5;;;2.8;;
23360;SDS011;11852;50.082;18.554;2023-01-13T07:04:37;8.0;;;3.1;;
23360;SDS011;11852;50.082;18.554;2023-01-13T07:05:54;6.7;;;2.9;;
23360;SDS011;11852;50.082;18.554;2023-01-13T07:06:57;7.1;;;3.1;;
23360;SDS011;11852;50.082;18.554;2023-01-13T07:08:04;9.6;;;3.5;;
23360;SDS011;11852;50.082;18.554;2023-01-13T07:09:11;7.7;;;3.4;;
23360;SDS011;11852;50.082;18.554;2023-01-13T07:10:18;6.9;;;3.5;;
23360;SDS011;11852;50.082;18.554;2023-01-13T07:11:25;7.3;;;3.3;;
23360;SDS011;11852;50.082;18.554;2023-01-13T07:12:32;9.1;;;3.5;;
23360;SDS011;11852;50.082;18.554;2023-01-13T07:13:45;8.0;;;3.7;;
23360;SDS011;11852;50.082;18.554;2023-01-13T07:14:57;6.8;;;3.7;;
23360;SDS011;11852;50.082;18.554;2023-01-13T07:16:05;8.0;;;3.9;;
23360;SDS011;11852;50.082;18.554;2023-01-13T07:17:11;7.7;;;3.9;;
23360;SDS011;11852;50.082;18.554;2023-01-13T07:18:18;10.4;;;3.9;;
23360;SDS011;11852;50.082;18.554;2023-01-13T07:19:25;8.8;;;3.7;;
23360;SDS011;11852;50.082;18.554;2023-01-13T07:20:33;8.1;;;3.9;;
23360;SDS011;11852;50.082;18.554;2023-01-13T07:21:40;7.8;;;3.8;;
23360;SDS011;11852;50.082;18.554;2023-01-13T07:22:47;8.8;;;4.0;;
23360;SDS011;11852;50.082;18.554;2023-01-13T07:23:54;9.9;;;4.6;;
23360;SDS011;11852;50.082;18.554;2023-01-13T07:25:01;10.0;;;4.5;;
23360;SDS011;11852;50.082;18.554;2023-01-13T07:26:09;10.2;;;4.5;;
23360;SDS011;11852;50.082;18.554;2023-01-13T07:27:15;9.8;;;4.7;;
23360;SDS011;11852;50.082;18.554;2023-01-13T07:28:23;9.7;;;4.6;;
23360;SDS011;11852;50.082;18.554;2023-01-13T07:29:29;10.9;;;4.9;;
23360;SDS011;11852;50.082;18.554;2023-01-13T07:30:37;9.7;;;4.6;;
23360;SDS011;11852;50.082;18.554;2023-01-13T07:31:44;7.8;;;4.1;;
23360;SDS011;11852;50.082;18.554;2023-01-13T07:32:51;8.3;;;4.4;;
23360;SDS011;11852;50.082;18.554;2023-01-13T07:33:58;9.3;;;4.6;;
23360;SDS011;11852;50.082;18.554;2023-01-13T07:35:05;8.7;;;4.1;;
23360;SDS011;11852;50.082;18.554;2023-01-13T07:36:13;7.6;;;3.7;;